Beverly, MA

8:48 PM EDT on August 27, 2015 (GMT -0400)
Beverly Cove | | Change Station
CLOSE
Current Station
Personal Weather Station
Location: Beverly, MA
Elevation: 51 ft
Nearby Weather Stations

Elev 51 ft 42.56 °N, 70.85 °W | Updated 1 second ago

Partly Cloudy
Partly Cloudy
69.2 °F
Feels Like 69.2 °F
N
0.0
Wind Variable Wind from North
Gusts 1.0 mph

Today
High -- | Low -- °F
--% Chance of Precip.
Yesterday
High -- | Low -- °F
Precip. -- in
6:02 AM 7:26 PM
Waxing Gibbous, 96% visible
Pressure 29.99 in
Visibility 10.0 miles
Clouds Few 6500 ft
Scattered Clouds 9000 ft
Dew Point 59 °F
Humidity 69%
Rainfall 0.00 in
Snow Depth Not available.
UV 0 out of 12
Pollen 10.10 out of 12
Air Quality Not available.
Flu Activity Not available.
METAR KBVY 272353Z 31006KT 10SM FEW065 SCT090 22/12 A3001 RMK AO2 SLP155 T02170122 10272 20217 53016
Pressure 29.99 in
Visibility 10.0 miles
Clouds Few 6500 ft
Scattered Clouds 9000 ft
Dew Point 59 °F
Humidity 69%
Rainfall 0.00 in
Snow Depth Not available.
UV 0 out of 12
Pollen 10.10 out of 12
Air Quality Not available.
Flu Activity Not available.
METAR KBVY 272353Z 31006KT 10SM FEW065 SCT090 22/12 A3001 RMK AO2 SLP155 T02170122 10272 20217 53016

10-Day Weather Forecast

×

Almanac

Astronomy

Aug. 27, 2015 Rise Set
Actual Time
Civil Twilight
Nautical Twilight
Astronomical Twilight
Moon
Length of Visible Light
Length of Day
Tomorrow will be .
, % of the Moon is Illuminated

Today's Extremes

State Highs State Lows

Community

WunderPhotos

Upload Photos

1,850,275 photos uploaded!

WunderBlogs® & News

Nearby

Air Quality

  Air Quality AQ Index Pollutant
Not available.

Snow Depth

Station Depth Elevation

Earthquake Activity

City Distance Mag. Time & Date
Minimum magnitude displayed is 2.5.

Coastal Water Temperatures

Place Temperature

Stations

Nearby Weather Stations

Station Location Temp. Windchill Dew Point Humidity Wind Precip. Elev Updated Type